sensor_id;sensor_type;location;lat;lon;timestamp;pressure;altitude;pressure_sealevel;temperature;humidity
21706;BME280;11014;53.076;18.208;2023-03-20T00:02:24;101284.19;;;8.54;62.26
21706;BME280;11014;53.076;18.208;2023-03-20T00:04:53;101280.25;;;8.50;62.35
21706;BME280;11014;53.076;18.208;2023-03-20T00:07:22;101283.56;;;8.52;62.16
21706;BME280;11014;53.076;18.208;2023-03-20T00:09:51;101277.81;;;8.55;62.43
21706;BME280;11014;53.076;18.208;2023-03-20T00:12:23;101269.56;;;8.56;62.38
21706;BME280;11014;53.076;18.208;2023-03-20T00:14:54;101265.88;;;8.57;61.96
21706;BME280;11014;53.076;18.208;2023-03-20T00:17:25;101268.94;;;8.61;61.88
21706;BME280;11014;53.076;18.208;2023-03-20T00:19:54;101263.59;;;8.61;62.20
21706;BME280;11014;53.076;18.208;2023-03-20T00:22:22;101258.88;;;8.63;62.13
21706;BME280;11014;53.076;18.208;2023-03-20T00:24:51;101254.75;;;8.67;62.05
21706;BME280;11014;53.076;18.208;2023-03-20T00:27:21;101259.31;;;8.73;62.22
21706;BME280;11014;53.076;18.208;2023-03-20T00:29:50;101255.22;;;8.77;62.17
21706;BME280;11014;53.076;18.208;2023-03-20T00:32:18;101245.72;;;8.81;62.17
21706;BME280;11014;53.076;18.208;2023-03-20T00:34:48;101239.56;;;8.87;62.11
21706;BME280;11014;53.076;18.208;2023-03-20T00:37:17;101241.22;;;9.14;61.36
21706;BME280;11014;53.076;18.208;2023-03-20T00:39:45;101245.34;;;9.30;61.06
21706;BME280;11014;53.076;18.208;2023-03-20T00:42:19;101236.91;;;9.39;60.86
21706;BME280;11014;53.076;18.208;2023-03-20T00:44:51;101239.16;;;9.42;60.44
21706;BME280;11014;53.076;18.208;2023-03-20T00:47:24;101238.75;;;9.39;60.27
21706;BME280;11014;53.076;18.208;2023-03-20T00:49:55;101240.38;;;9.46;60.48
21706;BME280;11014;53.076;18.208;2023-03-20T00:52:23;101233.34;;;9.45;60.66
21706;BME280;11014;53.076;18.208;2023-03-20T00:54:54;101231.72;;;9.44;60.68
21706;BME280;11014;53.076;18.208;2023-03-20T00:57:32;101231.31;;;9.47;60.57
21706;BME280;11014;53.076;18.208;2023-03-20T01:00:18;101223.88;;;9.49;60.52
21706;BME280;11014;53.076;18.208;2023-03-20T01:02:47;101222.22;;;9.48;60.60
21706;BME280;11014;53.076;18.208;2023-03-20T01:05:16;101210.72;;;9.28;61.45
21706;BME280;11014;53.076;18.208;2023-03-20T01:07:47;101212.75;;;9.26;61.84
21706;BME280;11014;53.076;18.208;2023-03-20T01:10:16;101217.72;;;9.23;62.10
21706;BME280;11014;53.076;18.208;2023-03-20T01:12:46;101221.81;;;9.51;61.61
21706;BME280;11014;53.076;18.208;2023-03-20T01:15:28;101215.16;;;9.67;61.40
21706;BME280;11014;53.076;18.208;2023-03-20T01:17:58;101219.94;;;9.72;61.21
21706;BME280;11014;53.076;18.208;2023-03-20T01:20:28;101223.41;;;9.79;60.99
21706;BME280;11014;53.076;18.208;2023-03-20T01:22:57;101219.69;;;9.80;61.03
21706;BME280;11014;53.076;18.208;2023-03-20T01:25:25;101216.59;;;9.83;60.76
21706;BME280;11014;53.076;18.208;2023-03-20T01:27:54;101218.84;;;9.86;61.15
21706;BME280;11014;53.076;18.208;2023-03-20T01:30:29;101218.00;;;9.92;61.03
21706;BME280;11014;53.076;18.208;2023-03-20T01:32:59;101215.06;;;10.00;61.09
21706;BME280;11014;53.076;18.208;2023-03-20T01:35:31;101212.59;;;10.05;60.97
21706;BME280;11014;53.076;18.208;2023-03-20T01:38:12;101217.09;;;10.11;60.86
21706;BME280;11014;53.076;18.208;2023-03-20T01:41:04;101207.63;;;10.15;60.84
21706;BME280;11014;53.076;18.208;2023-03-20T01:43:38;101205.16;;;10.07;60.80
21706;BME280;11014;53.076;18.208;2023-03-20T01:53:53;101206.34;;;10.11;60.97
21706;BME280;11014;53.076;18.208;2023-03-20T01:56:30;101204.94;;;10.15;60.89
21706;BME280;11014;53.076;18.208;2023-03-20T01:59:09;101202.84;;;10.17;60.89
21706;BME280;11014;53.076;18.208;2023-03-20T02:01:41;101203.03;;;10.22;60.76
21706;BME280;11014;53.076;18.208;2023-03-20T02:04:11;101206.97;;;10.26;60.82
21706;BME280;11014;53.076;18.208;2023-03-20T02:06:48;101195.56;;;10.31;60.79
21706;BME280;11014;53.076;18.208;2023-03-20T02:09:42;101205.47;;;10.30;60.55
21706;BME280;11014;53.076;18.208;2023-03-20T02:12:18;101202.00;;;10.23;60.93
21706;BME280;11014;53.076;18.208;2023-03-20T02:14:49;101196.63;;;10.23;60.74
21706;BME280;11014;53.076;18.208;2023-03-20T02:17:25;101198.97;;;10.00;61.54
21706;BME280;11014;53.076;18.208;2023-03-20T02:23:13;101197.16;;;9.94;62.39
21706;BME280;11014;53.076;18.208;2023-03-20T02:28:51;101194.91;;;9.91;62.48
21706;BME280;11014;53.076;18.208;2023-03-20T02:37:20;101196.81;;;10.28;61.05
21706;BME280;11014;53.076;18.208;2023-03-20T02:40:14;101188.50;;;10.36;60.96
21706;BME280;11014;53.076;18.208;2023-03-20T02:42:57;101198.13;;;10.06;61.31
21706;BME280;11014;53.076;18.208;2023-03-20T02:45:45;101199.78;;;10.00;61.95
21706;BME280;11014;53.076;18.208;2023-03-20T02:48:32;101196.47;;;10.18;61.34
21706;BME280;11014;53.076;18.208;2023-03-20T02:52:09;101192.56;;;10.07;61.30
21706;BME280;11014;53.076;18.208;2023-03-20T02:57:35;101175.81;;;10.19;60.93
21706;BME280;11014;53.076;18.208;2023-03-20T03:00:14;101185.13;;;10.03;60.99
21706;BME280;11014;53.076;18.208;2023-03-20T03:03:03;101190.34;;;9.91;61.60
21706;BME280;11014;53.076;18.208;2023-03-20T03:05:44;101183.34;;;9.90;62.07
21706;BME280;11014;53.076;18.208;2023-03-20T03:08:18;101180.66;;;9.90;62.01
21706;BME280;11014;53.076;18.208;2023-03-20T03:10:57;101181.47;;;9.91;62.16
21706;BME280;11014;53.076;18.208;2023-03-20T03:13:30;101187.03;;;9.96;61.92
21706;BME280;11014;53.076;18.208;2023-03-20T03:16:06;101187.75;;;10.23;61.20
21706;BME280;11014;53.076;18.208;2023-03-20T03:18:37;101180.72;;;10.28;60.45
21706;BME280;11014;53.076;18.208;2023-03-20T03:21:09;101183.19;;;10.30;60.36
21706;BME280;11014;53.076;18.208;2023-03-20T03:23:44;101181.09;;;10.32;60.30
21706;BME280;11014;53.076;18.208;2023-03-20T03:26:20;101190.59;;;10.34;60.29
21706;BME280;11014;53.076;18.208;2023-03-20T03:29:00;101185.81;;;10.36;60.29
21706;BME280;11014;53.076;18.208;2023-03-20T03:31:31;101181.06;;;10.38;59.96
21706;BME280;11014;53.076;18.208;2023-03-20T03:34:01;101188.09;;;10.39;59.86
21706;BME280;11014;53.076;18.208;2023-03-20T03:44:53;101178.63;;;10.30;59.90
21706;BME280;11014;53.076;18.208;2023-03-20T03:47:31;101177.19;;;10.28;60.14
21706;BME280;11014;53.076;18.208;2023-03-20T03:50:11;101179.94;;;10.21;59.72
21706;BME280;11014;53.076;18.208;2023-03-20T03:52:42;101178.31;;;10.14;60.32
21706;BME280;11014;53.076;18.208;2023-03-20T03:55:19;101173.34;;;10.10;60.09
21706;BME280;11014;53.076;18.208;2023-03-20T03:58:15;101168.78;;;10.11;60.23
21706;BME280;11014;53.076;18.208;2023-03-20T04:00:49;101166.75;;;10.13;60.22
21706;BME280;11014;53.076;18.208;2023-03-20T04:03:22;101168.38;;;10.14;60.40
21706;BME280;11014;53.076;18.208;2023-03-20T04:05:54;101167.16;;;10.10;60.44
21706;BME280;11014;53.076;18.208;2023-03-20T04:08:26;101164.66;;;10.08;60.10
21706;BME280;11014;53.076;18.208;2023-03-20T04:10:57;101171.91;;;10.08;60.50
21706;BME280;11014;53.076;18.208;2023-03-20T04:13:25;101166.31;;;10.09;60.35
21706;BME280;11014;53.076;18.208;2023-03-20T04:15:54;101167.16;;;10.10;60.19
21706;BME280;11014;53.076;18.208;2023-03-20T04:18:25;101166.31;;;10.09;60.44
21706;BME280;11014;53.076;18.208;2023-03-20T04:20:55;101165.72;;;10.07;60.36
21706;BME280;11014;53.076;18.208;2023-03-20T04:23:23;101162.03;;;10.02;60.36
21706;BME280;11014;53.076;18.208;2023-03-20T04:25:52;101164.31;;;9.98;59.97
21706;BME280;11014;53.076;18.208;2023-03-20T04:28:22;101163.09;;;9.94;60.15
21706;BME280;11014;53.076;18.208;2023-03-20T04:31:04;101162.69;;;9.91;59.76
21706;BME280;11014;53.076;18.208;2023-03-20T04:33:51;101159.00;;;9.85;59.81
21706;BME280;11014;53.076;18.208;2023-03-20T04:36:34;101163.53;;;9.85;60.16
21706;BME280;11014;53.076;18.208;2023-03-20T04:39:05;101171.81;;;9.83;60.24
21706;BME280;11014;53.076;18.208;2023-03-20T04:41:34;101164.38;;;9.79;59.99
21706;BME280;11014;53.076;18.208;2023-03-20T04:44:03;101164.38;;;9.79;60.19
21706;BME280;11014;53.076;18.208;2023-03-20T04:46:33;101170.97;;;9.83;60.27
21706;BME280;11014;53.076;18.208;2023-03-20T04:49:05;101169.91;;;9.90;60.15
21706;BME280;11014;53.076;18.208;2023-03-20T04:51:33;101172.38;;;9.92;59.84
21706;BME280;11014;53.076;18.208;2023-03-20T04:54:03;101169.25;;;9.95;59.85
21706;BME280;11014;53.076;18.208;2023-03-20T04:56:31;101158.94;;;9.98;59.76
21706;BME280;11014;53.076;18.208;2023-03-20T04:59:19;101163.06;;;10.01;59.98
21706;BME280;11014;53.076;18.208;2023-03-20T05:01:47;101172.13;;;10.00;59.96
21706;BME280;11014;53.076;18.208;2023-03-20T05:04:16;101163.47;;;9.98;60.07
21706;BME280;11014;53.076;18.208;2023-03-20T05:06:44;101153.97;;;10.02;60.13
21706;BME280;11014;53.076;18.208;2023-03-20T05:09:19;101165.50;;;10.09;60.42
21706;BME280;11014;53.076;18.208;2023-03-20T05:11:50;101162.59;;;10.17;60.19
21706;BME280;11014;53.076;18.208;2023-03-20T05:14:38;101165.03;;;10.25;60.20
21706;BME280;11014;53.076;18.208;2023-03-20T05:17:23;101171.63;;;10.29;59.68
21706;BME280;11014;53.076;18.208;2023-03-20T05:20:36;101172.63;;;10.35;59.94
21706;BME280;11014;53.076;18.208;2023-03-20T05:23:25;101174.25;;;10.36;60.18
21706;BME280;11014;53.076;18.208;2023-03-20T05:26:23;101179.06;;;10.27;60.18
21706;BME280;11014;53.076;18.208;2023-03-20T05:29:13;101179.16;;;10.01;61.49
21706;BME280;11014;53.076;18.208;2023-03-20T05:32:00;101189.72;;;9.96;62.21
21706;BME280;11014;53.076;18.208;2023-03-20T05:34:46;101185.53;;;10.00;62.36
21706;BME280;11014;53.076;18.208;2023-03-20T05:37:39;101192.97;;;10.04;62.72
21706;BME280;11014;53.076;18.208;2023-03-20T05:40:26;101184.50;;;10.14;62.66
21706;BME280;11014;53.076;18.208;2023-03-20T05:43:12;101181.13;;;10.25;62.53
21706;BME280;11014;53.076;18.208;2023-03-20T05:46:01;101186.09;;;10.59;62.08
21706;BME280;11014;53.076;18.208;2023-03-20T05:48:48;101184.16;;;10.73;61.78
21706;BME280;11014;53.076;18.208;2023-03-20T05:51:28;101184.88;;;10.87;61.90
21706;BME280;11014;53.076;18.208;2023-03-20T05:54:03;101176.09;;;10.98;61.88
21706;BME280;11014;53.076;18.208;2023-03-20T05:57:23;101195.47;;;11.06;62.10
21706;BME280;11014;53.076;18.208;2023-03-20T06:00:17;101194.50;;;11.01;61.96
21706;BME280;11014;53.076;18.208;2023-03-20T06:02:46;101191.97;;;11.06;62.15
21706;BME280;11014;53.076;18.208;2023-03-20T06:05:37;101195.78;;;11.16;62.23
21706;BME280;11014;53.076;18.208;2023-03-20T06:08:06;101195.28;;;11.26;62.02
21706;BME280;11014;53.076;18.208;2023-03-20T06:10:35;101196.66;;;11.35;62.33
21706;BME280;11014;53.076;18.208;2023-03-20T06:13:04;101209.97;;;11.48;62.25
21706;BME280;11014;53.076;18.208;2023-03-20T06:15:32;101198.72;;;11.58;61.91
21706;BME280;11014;53.076;18.208;2023-03-20T06:18:12;101194.03;;;11.71;62.24
21706;BME280;11014;53.076;18.208;2023-03-20T06:20:40;101196.00;;;11.82;61.80
21706;BME280;11014;53.076;18.208;2023-03-20T06:23:09;101198.53;;;11.96;61.98
21706;BME280;11014;53.076;18.208;2023-03-20T06:25:38;101197.53;;;12.08;61.79
21706;BME280;11014;53.076;18.208;2023-03-20T06:28:08;101201.94;;;12.21;61.99
21706;BME280;11014;53.076;18.208;2023-03-20T06:30:37;101193.31;;;12.30;61.77
21706;BME280;11014;53.076;18.208;2023-03-20T06:33:06;101195.22;;;12.41;61.64
21706;BME280;11014;53.076;18.208;2023-03-20T06:35:51;101197.16;;;12.53;61.32
21706;BME280;11014;53.076;18.208;2023-03-20T06:38:22;101203.50;;;12.58;61.25
21706;BME280;11014;53.076;18.208;2023-03-20T06:40:50;101201.16;;;12.62;61.09
21706;BME280;11014;53.076;18.208;2023-03-20T06:43:19;101202.13;;;12.67;61.16
21706;BME280;11014;53.076;18.208;2023-03-20T06:45:51;101202.25;;;12.72;61.20
21706;BME280;11014;53.076;18.208;2023-03-20T06:48:23;101210.22;;;12.79;61.23
21706;BME280;11014;53.076;18.208;2023-03-20T06:50:52;101210.84;;;12.81;61.04
21706;BME280;11014;53.076;18.208;2023-03-20T06:53:24;101209.72;;;13.12;60.96
21706;BME280;11014;53.076;18.208;2023-03-20T06:56:05;101204.06;;;13.01;60.71
21706;BME280;11014;53.076;18.208;2023-03-20T06:58:34;101206.19;;;12.99;61.02
21706;BME280;11014;53.076;18.208;2023-03-20T07:01:14;101212.16;;;13.01;61.63
21706;BME280;11014;53.076;18.208;2023-03-20T07:03:45;101211.69;;;13.04;62.17
21706;BME280;11014;53.076;18.208;2023-03-20T07:06:18;101207.75;;;13.07;62.44
21706;BME280;11014;53.076;18.208;2023-03-20T07:08:47;101208.69;;;13.13;62.46
21706;BME280;11014;53.076;18.208;2023-03-20T07:11:15;101214.56;;;13.21;62.64
21706;BME280;11014;53.076;18.208;2023-03-20T07:13:45;101225.25;;;13.28;62.49
21706;BME280;11014;53.076;18.208;2023-03-20T07:16:27;101219.00;;;13.39;62.65
21706;BME280;11014;53.076;18.208;2023-03-20T07:18:55;101218.56;;;13.42;62.99
21706;BME280;11014;53.076;18.208;2023-03-20T07:21:25;101218.44;;;13.48;63.41
21706;BME280;11014;53.076;18.208;2023-03-20T07:23:54;101225.84;;;13.53;63.55
21706;BME280;11014;53.076;18.208;2023-03-20T07:26:22;101232.28;;;13.63;63.61
21706;BME280;11014;53.076;18.208;2023-03-20T07:28:52;101235.91;;;13.69;63.79
21706;BME280;11014;53.076;18.208;2023-03-20T07:31:26;101236.63;;;13.76;64.42
21706;BME280;11014;53.076;18.208;2023-03-20T07:34:06;101235.19;;;13.85;64.51
21706;BME280;11014;53.076;18.208;2023-03-20T07:36:35;101235.53;;;13.89;65.10
21706;BME280;11014;53.076;18.208;2023-03-20T07:39:04;101232.84;;;14.00;65.02
21706;BME280;11014;53.076;18.208;2023-03-20T07:41:34;101234.16;;;13.86;65.80
21706;BME280;11014;53.076;18.208;2023-03-20T07:44:06;101238.88;;;13.79;67.09
21706;BME280;11014;53.076;18.208;2023-03-20T07:46:46;101248.94;;;13.84;68.16
21706;BME280;11014;53.076;18.208;2023-03-20T07:49:16;101249.53;;;13.86;68.73
21706;BME280;11014;53.076;18.208;2023-03-20T07:51:47;101244.59;;;13.94;68.79
21706;BME280;11014;53.076;18.208;2023-03-20T07:54:16;101238.72;;;13.97;68.98
21706;BME280;11014;53.076;18.208;2023-03-20T07:56:44;101241.75;;;14.12;69.11
21706;BME280;11014;53.076;18.208;2023-03-20T07:59:14;101240.44;;;14.15;69.47
21706;BME280;11014;53.076;18.208;2023-03-20T08:01:42;101238.88;;;14.31;69.18
21706;BME280;11014;53.076;18.208;2023-03-20T08:04:11;101239.09;;;14.41;69.09
21706;BME280;11014;53.076;18.208;2023-03-20T08:06:40;101242.38;;;14.43;69.09
21706;BME280;11014;53.076;18.208;2023-03-20T08:09:11;101240.56;;;14.32;68.76
21706;BME280;11014;53.076;18.208;2023-03-20T08:11:39;101243.56;;;14.35;68.32
21706;BME280;11014;53.076;18.208;2023-03-20T08:14:08;101239.56;;;14.38;67.97
21706;BME280;11014;53.076;18.208;2023-03-20T08:16:38;101241.00;;;14.29;68.19
21706;BME280;11014;53.076;18.208;2023-03-20T08:19:06;101241.03;;;14.05;69.34
21706;BME280;11014;53.076;18.208;2023-03-20T08:21:35;101236.09;;;14.02;70.00
21706;BME280;11014;53.076;18.208;2023-03-20T08:24:04;101227.63;;;14.10;70.05
21706;BME280;11014;53.076;18.208;2023-03-20T08:26:33;101224.78;;;14.29;69.60
21706;BME280;11014;53.076;18.208;2023-03-20T08:29:02;101226.41;;;14.41;69.33
21706;BME280;11014;53.076;18.208;2023-03-20T08:31:31;101224.72;;;14.52;68.88
21706;BME280;11014;53.076;18.208;2023-03-20T08:34:00;101225.88;;;14.56;68.47
21706;BME280;11014;53.076;18.208;2023-03-20T08:36:29;101221.03;;;14.58;68.67
21706;BME280;11014;53.076;18.208;2023-03-20T08:38:58;101216.06;;;14.66;68.77
21706;BME280;11014;53.076;18.208;2023-03-20T08:41:26;101221.31;;;14.73;68.69
21706;BME280;11014;53.076;18.208;2023-03-20T08:43:55;101220.34;;;14.79;68.79
21706;BME280;11014;53.076;18.208;2023-03-20T08:46:23;101218.88;;;14.88;69.12
21706;BME280;11014;53.076;18.208;2023-03-20T08:48:52;101223.88;;;14.79;68.82
21706;BME280;11014;53.076;18.208;2023-03-20T08:51:21;101228.06;;;14.87;68.98
21706;BME280;11014;53.076;18.208;2023-03-20T08:53:50;101219.53;;;14.95;68.93
21706;BME280;11014;53.076;18.208;2023-03-20T08:56:18;101223.97;;;15.01;68.84
21706;BME280;11014;53.076;18.208;2023-03-20T08:58:47;101223.66;;;15.14;68.43
21706;BME280;11014;53.076;18.208;2023-03-20T09:01:15;101230.63;;;15.10;68.43
21706;BME280;11014;53.076;18.208;2023-03-20T09:03:44;101224.47;;;15.31;68.52
21706;BME280;11014;53.076;18.208;2023-03-20T09:06:13;101222.19;;;15.57;68.70
21706;BME280;11014;53.076;18.208;2023-03-20T09:08:41;101219.84;;;15.82;67.86
21706;BME280;11014;53.076;18.208;2023-03-20T09:11:10;101223.31;;;15.99;68.43
21706;BME280;11014;53.076;18.208;2023-03-20T09:13:38;101223.63;;;16.24;67.28
21706;BME280;11014;53.076;18.208;2023-03-20T09:16:07;101216.47;;;16.40;66.50
21706;BME280;11014;53.076;18.208;2023-03-20T09:18:36;101221.53;;;16.53;65.80
21706;BME280;11014;53.076;18.208;2023-03-20T09:21:05;101212.66;;;16.57;64.83
21706;BME280;11014;53.076;18.208;2023-03-20T09:23:34;101211.69;;;16.69;64.34
21706;BME280;11014;53.076;18.208;2023-03-20T09:26:03;101206.31;;;16.74;64.11
21706;BME280;11014;53.076;18.208;2023-03-20T09:28:32;101202.53;;;16.75;64.03
21706;BME280;11014;53.076;18.208;2023-03-20T09:31:00;101198.25;;;16.84;63.91
21706;BME280;11014;53.076;18.208;2023-03-20T09:33:29;101196.94;;;16.91;63.72
21706;BME280;11014;53.076;18.208;2023-03-20T09:35:58;101186.91;;;16.92;63.34
21706;BME280;11014;53.076;18.208;2023-03-20T09:38:29;101205.88;;;16.87;63.45
21706;BME280;11014;53.076;18.208;2023-03-20T09:40:59;101207.22;;;16.84;63.73
21706;BME280;11014;53.076;18.208;2023-03-20T09:49:29;101205.63;;;16.40;64.86
21706;BME280;11014;53.076;18.208;2023-03-20T09:52:21;101214.03;;;16.38;64.49
21706;BME280;11014;53.076;18.208;2023-03-20T09:54:53;101210.41;;;16.28;64.91
21706;BME280;11014;53.076;18.208;2023-03-20T09:57:35;101209.16;;;16.40;64.81
21706;BME280;11014;53.076;18.208;2023-03-20T10:00:12;101218.00;;;16.52;64.91
21706;BME280;11014;53.076;18.208;2023-03-20T10:02:51;101225.88;;;16.32;64.95
21706;BME280;11014;53.076;18.208;2023-03-20T10:05:30;101221.16;;;16.44;64.93
21706;BME280;11014;53.076;18.208;2023-03-20T10:08:02;101220.34;;;16.44;65.25
21706;BME280;11014;53.076;18.208;2023-03-20T10:10:45;101229.75;;;16.58;65.32
21706;BME280;11014;53.076;18.208;2023-03-20T10:16:06;101217.94;;;17.01;63.54
21706;BME280;11014;53.076;18.208;2023-03-20T10:18:45;101226.03;;;16.96;63.09
21706;BME280;11014;53.076;18.208;2023-03-20T10:21:23;101221.03;;;16.56;63.60
21706;BME280;11014;53.076;18.208;2023-03-20T10:24:03;101215.47;;;16.68;63.36
21706;BME280;11014;53.076;18.208;2023-03-20T10:26:34;101212.25;;;16.71;62.91
21706;BME280;11014;53.076;18.208;2023-03-20T10:29:37;101214.69;;;16.50;63.32
21706;BME280;11014;53.076;18.208;2023-03-20T10:37:43;101208.38;;;17.25;62.61
21706;BME280;11014;53.076;18.208;2023-03-20T10:40:34;101213.53;;;17.58;60.89
21706;BME280;11014;53.076;18.208;2023-03-20T10:43:28;101204.69;;;17.41;61.02
21706;BME280;11014;53.076;18.208;2023-03-20T10:46:28;101204.81;;;17.56;60.99
21706;BME280;11014;53.076;18.208;2023-03-20T10:49:02;101207.16;;;17.90;59.98
21706;BME280;11014;53.076;18.208;2023-03-20T10:51:45;101209.78;;;18.31;58.95
21706;BME280;11014;53.076;18.208;2023-03-20T10:54:35;101201.06;;;18.24;58.12
21706;BME280;11014;53.076;18.208;2023-03-20T10:57:05;101198.72;;;18.48;57.93
21706;BME280;11014;53.076;18.208;2023-03-20T10:59:42;101206.88;;;18.53;56.95
21706;BME280;11014;53.076;18.208;2023-03-20T11:02:13;101199.00;;;18.67;56.69
21706;BME280;11014;53.076;18.208;2023-03-20T11:04:43;101190.06;;;18.91;56.12
21706;BME280;11014;53.076;18.208;2023-03-20T11:07:22;101188.16;;;18.97;55.14
21706;BME280;11014;53.076;18.208;2023-03-20T11:12:38;101195.75;;;19.35;54.47
21706;BME280;11014;53.076;18.208;2023-03-20T11:15:27;101191.13;;;19.56;54.21
21706;BME280;11014;53.076;18.208;2023-03-20T11:18:04;101189.13;;;19.82;53.88
21706;BME280;11014;53.076;18.208;2023-03-20T11:20:55;101194.78;;;20.00;53.14
21706;BME280;11014;53.076;18.208;2023-03-20T11:23:31;101177.31;;;20.06;51.24
21706;BME280;11014;53.076;18.208;2023-03-20T11:26:03;101177.34;;;20.01;51.73
21706;BME280;11014;53.076;18.208;2023-03-20T11:28:34;101174.22;;;20.23;51.16
21706;BME280;11014;53.076;18.208;2023-03-20T11:31:15;101174.84;;;20.10;50.90
21706;BME280;11014;53.076;18.208;2023-03-20T11:33:50;101187.34;;;20.26;50.56
21706;BME280;11014;53.076;18.208;2023-03-20T11:36:28;101175.66;;;20.05;49.93
21706;BME280;11014;53.076;18.208;2023-03-20T11:39:29;101182.31;;;19.84;49.83
21706;BME280;11014;53.076;18.208;2023-03-20T11:42:03;101177.38;;;19.86;49.66
21706;BME280;11014;53.076;18.208;2023-03-20T11:45:14;101175.13;;;20.14;50.34
21706;BME280;11014;53.076;18.208;2023-03-20T11:47:49;101175.84;;;20.34;50.09
21706;BME280;11014;53.076;18.208;2023-03-20T11:50:37;101170.81;;;20.51;49.55
21706;BME280;11014;53.076;18.208;2023-03-20T11:53:32;101167.09;;;20.76;49.13
21706;BME280;11014;53.076;18.208;2023-03-20T11:56:10;101166.75;;;20.49;49.18
21706;BME280;11014;53.076;18.208;2023-03-20T11:59:12;101149.16;;;20.65;48.78
21706;BME280;11014;53.076;18.208;2023-03-20T12:01:44;101166.53;;;20.79;49.09
21706;BME280;11014;53.076;18.208;2023-03-20T12:10:09;101156.75;;;21.36;47.97
21706;BME280;11014;53.076;18.208;2023-03-20T12:12:48;101151.03;;;21.61;46.96
21706;BME280;11014;53.076;18.208;2023-03-20T12:15:36;101149.75;;;21.77;46.88
21706;BME280;11014;53.076;18.208;2023-03-20T12:18:33;101157.53;;;21.65;45.56
21706;BME280;11014;53.076;18.208;2023-03-20T12:21:11;101148.69;;;21.49;45.88
21706;BME280;11014;53.076;18.208;2023-03-20T12:26:53;101156.75;;;20.73;46.92
21706;BME280;11014;53.076;18.208;2023-03-20T12:29:36;101159.66;;;20.48;47.98
21706;BME280;11014;53.076;18.208;2023-03-20T12:32:36;101146.91;;;20.33;48.14
21706;BME280;11014;53.076;18.208;2023-03-20T12:35:30;101145.53;;;20.36;48.02
21706;BME280;11014;53.076;18.208;2023-03-20T12:37:59;101150.25;;;20.20;49.00
21706;BME280;11014;53.076;18.208;2023-03-20T12:41:00;101139.88;;;20.17;48.93
21706;BME280;11014;53.076;18.208;2023-03-20T12:49:22;101146.75;;;20.58;47.54
21706;BME280;11014;53.076;18.208;2023-03-20T12:52:04;101139.44;;;20.54;47.17
21706;BME280;11014;53.076;18.208;2023-03-20T13:00:17;101142.50;;;20.81;46.52
21706;BME280;11014;53.076;18.208;2023-03-20T13:03:02;101133.69;;;20.89;46.00
21706;BME280;11014;53.076;18.208;2023-03-20T13:05:47;101127.09;;;20.95;45.86
21706;BME280;11014;53.076;18.208;2023-03-20T13:09:15;101124.56;;;20.70;46.28
21706;BME280;11014;53.076;18.208;2023-03-20T13:11:30;101122.00;;;20.45;46.96
21706;BME280;11014;53.076;18.208;2023-03-20T13:20:01;101102.16;;;20.73;45.28
21706;BME280;11014;53.076;18.208;2023-03-20T13:22:58;101107.19;;;20.56;45.55
21706;BME280;11014;53.076;18.208;2023-03-20T13:28:40;101097.31;;;20.65;44.83
21706;BME280;11014;53.076;18.208;2023-03-20T13:31:15;101102.63;;;20.80;44.78
21706;BME280;11014;53.076;18.208;2023-03-20T13:33:59;101090.56;;;20.86;44.04
21706;BME280;11014;53.076;18.208;2023-03-20T13:36:57;101089.53;;;21.35;43.89
21706;BME280;11014;53.076;18.208;2023-03-20T13:40:03;101091.56;;;21.48;43.28
21706;BME280;11014;53.076;18.208;2023-03-20T13:42:43;101098.81;;;21.39;43.79
21706;BME280;11014;53.076;18.208;2023-03-20T13:45:46;101086.75;;;20.87;43.20
21706;BME280;11014;53.076;18.208;2023-03-20T13:48:33;101080.88;;;20.70;43.39
21706;BME280;11014;53.076;18.208;2023-03-20T13:54:00;101082.16;;;20.44;44.09
21706;BME280;11014;53.076;18.208;2023-03-20T13:56:34;101087.06;;;20.47;44.35
21706;BME280;11014;53.076;18.208;2023-03-20T14:05:00;101069.75;;;20.28;44.68
21706;BME280;11014;53.076;18.208;2023-03-20T14:07:34;101068.13;;;20.22;45.58
21706;BME280;11014;53.076;18.208;2023-03-20T14:13:05;101059.97;;;20.17;45.81
21706;BME280;11014;53.076;18.208;2023-03-20T14:15:36;101060.63;;;20.42;45.31
21706;BME280;11014;53.076;18.208;2023-03-20T14:18:17;101060.59;;;20.47;44.85
21706;BME280;11014;53.076;18.208;2023-03-20T14:21:01;101070.38;;;20.53;44.60
21706;BME280;11014;53.076;18.208;2023-03-20T14:23:47;101043.22;;;20.67;44.31
21706;BME280;11014;53.076;18.208;2023-03-20T14:26:30;101055.69;;;20.78;43.60
21706;BME280;11014;53.076;18.208;2023-03-20T14:29:47;101051.03;;;20.79;43.96
21706;BME280;11014;53.076;18.208;2023-03-20T14:31:49;101045.53;;;20.84;44.10
21706;BME280;11014;53.076;18.208;2023-03-20T14:34:21;101049.50;;;20.96;43.82
21706;BME280;11014;53.076;18.208;2023-03-20T14:37:03;101046.69;;;21.06;43.25
21706;BME280;11014;53.076;18.208;2023-03-20T14:42:36;101046.88;;;20.86;42.89
21706;BME280;11014;53.076;18.208;2023-03-20T14:45:15;101051.88;;;20.74;42.30
21706;BME280;11014;53.076;18.208;2023-03-20T14:48:01;101062.38;;;20.23;42.73
21706;BME280;11014;53.076;18.208;2023-03-20T14:50:41;101055.72;;;20.00;42.69
21706;BME280;11014;53.076;18.208;2023-03-20T14:53:23;101059.94;;;19.83;43.32
21706;BME280;11014;53.076;18.208;2023-03-20T15:04:19;101059.09;;;19.08;44.86
21706;BME280;11014;53.076;18.208;2023-03-20T15:06:59;101062.06;;;19.17;45.45
21706;BME280;11014;53.076;18.208;2023-03-20T15:09:30;101107.06;;;18.74;52.08
21706;BME280;11014;53.076;18.208;2023-03-20T15:12:02;101091.47;;;17.47;64.04